createdAt,value
2023-03-24T00:00:55.846Z,12.06
2023-03-24T00:01:55.815Z,12.02
2023-03-24T00:02:55.905Z,12.06
2023-03-24T00:03:55.887Z,12.07
2023-03-24T00:04:55.797Z,12.07
2023-03-24T00:05:55.786Z,12.12
2023-03-24T00:06:55.775Z,12.06
2023-03-24T00:07:55.772Z,12.10
2023-03-24T00:08:57.495Z,12.07
2023-03-24T00:09:55.743Z,12.03
2023-03-24T00:10:55.746Z,12.18
2023-03-24T00:11:55.723Z,12.13
2023-03-24T00:12:55.724Z,12.17
2023-03-24T00:13:55.723Z,12.09
2023-03-24T00:14:55.717Z,12.07
2023-03-24T00:15:55.774Z,12.10
2023-03-24T00:16:55.756Z,12.07
2023-03-24T00:17:55.726Z,12.20
2023-03-24T00:18:55.671Z,12.10
2023-03-24T00:19:55.670Z,12.07
2023-03-24T00:20:55.666Z,12.13
2023-03-24T00:21:55.993Z,12.13
2023-03-24T00:23:55.238Z,12.07
2023-03-24T00:24:55.223Z,11.99
2023-03-24T00:25:55.218Z,12.07
2023-03-24T00:26:56.308Z,12.07
2023-03-24T00:27:57.157Z,12.10
2023-03-24T00:28:56.295Z,12.06
2023-03-24T00:29:56.286Z,12.12
2023-03-24T00:30:56.291Z,12.06
2023-03-24T00:31:56.278Z,12.15
2023-03-24T00:32:56.288Z,12.04
2023-03-24T00:33:56.250Z,12.06
2023-03-24T00:34:56.250Z,12.03
2023-03-24T00:35:57.183Z,12.06
2023-03-24T00:36:56.242Z,12.13
2023-03-24T00:37:56.230Z,11.99
2023-03-24T00:38:56.203Z,12.02
2023-03-24T00:39:56.215Z,12.06
2023-03-24T00:40:56.193Z,12.12
2023-03-24T00:41:56.195Z,12.09
2023-03-24T00:42:56.173Z,12.09
2023-03-24T00:43:56.185Z,12.02
2023-03-24T00:44:56.172Z,12.10
2023-03-24T00:45:56.158Z,12.04
2023-03-24T00:46:56.187Z,12.02
2023-03-24T00:47:56.177Z,12.09
2023-03-24T00:48:56.237Z,12.07
2023-03-24T00:49:56.121Z,12.06
2023-03-24T00:50:56.125Z,12.13
2023-03-24T00:51:57.108Z,12.06
2023-03-24T00:52:56.112Z,12.17
2023-03-24T00:53:56.103Z,12.12
2023-03-24T00:54:56.108Z,12.10
2023-03-24T00:55:56.080Z,12.07
2023-03-24T00:56:56.249Z,12.04
2023-03-24T00:57:56.065Z,12.09
2023-03-24T00:58:56.064Z,12.06
2023-03-24T00:59:56.043Z,12.13
2023-03-24T01:00:56.110Z,12.13
2023-03-24T01:01:56.071Z,12.07
2023-03-24T01:02:56.242Z,12.10
2023-03-24T01:03:56.025Z,12.04
2023-03-24T01:04:56.024Z,11.99
2023-03-24T01:05:56.011Z,12.02
2023-03-24T01:06:55.997Z,11.86
2023-03-24T01:07:55.986Z,12.09
2023-03-24T01:08:55.985Z,12.09
2023-03-24T01:09:55.966Z,12.07
2023-03-24T01:10:55.950Z,12.12
2023-03-24T01:11:55.969Z,12.09
2023-03-24T01:12:55.964Z,12.15
2023-03-24T01:13:55.943Z,12.18
2023-03-24T01:14:55.929Z,12.21
2023-03-24T01:15:55.941Z,12.15
2023-03-24T01:16:55.919Z,12.13
2023-03-24T01:17:56.983Z,12.12
2023-03-24T01:18:55.910Z,12.12
2023-03-24T01:19:55.890Z,12.15
2023-03-24T01:20:55.906Z,12.17
2023-03-24T01:21:55.895Z,12.06
2023-03-24T01:22:55.862Z,12.17
2023-03-24T01:23:55.865Z,12.12
2023-03-24T01:24:55.857Z,12.12
2023-03-24T01:25:55.850Z,12.13
2023-03-24T01:26:55.862Z,12.10
2023-03-24T01:27:55.834Z,12.12
2023-03-24T01:28:55.822Z,12.12
2023-03-24T01:29:55.799Z,12.17
2023-03-24T01:30:55.806Z,12.07
2023-03-24T01:31:56.131Z,12.04
2023-03-24T01:32:55.833Z,12.13
2023-03-24T01:33:55.799Z,12.02
2023-03-24T01:34:55.764Z,12.03
2023-03-24T01:35:55.812Z,12.09
2023-03-24T01:36:56.613Z,12.03
2023-03-24T01:37:55.749Z,12.07
2023-03-24T01:38:55.738Z,12.04
2023-03-24T01:39:55.737Z,12.06
2023-03-24T01:40:55.717Z,12.03
2023-03-24T01:41:55.726Z,11.97
2023-03-24T01:42:55.756Z,11.95
2023-03-24T01:43:56.611Z,12.02
2023-03-24T01:44:55.687Z,11.95
2023-03-24T01:45:56.655Z,11.99
2023-03-24T01:46:56.683Z,12.03
2023-03-24T01:47:55.732Z,12.06
2023-03-24T01:48:55.659Z,12.04
2023-03-24T01:49:56.183Z,12.06
2023-03-24T01:50:55.636Z,12.04
2023-03-24T01:51:55.635Z,11.95
2023-03-24T01:52:55.631Z,12.04
2023-03-24T01:53:56.694Z,12.02
2023-03-24T01:54:55.630Z,11.97
2023-03-24T01:55:55.643Z,11.87
2023-03-24T01:56:55.659Z,12.00
2023-03-24T01:57:55.582Z,12.10
2023-03-24T01:58:55.575Z,12.03
2023-03-24T01:59:55.556Z,12.06
2023-03-24T02:00:55.587Z,12.02
2023-03-24T02:01:56.193Z,12.07
2023-03-24T02:02:55.556Z,11.94
2023-03-24T02:03:56.209Z,12.07
2023-03-24T02:04:55.550Z,11.97
2023-03-24T02:05:55.518Z,12.13
2023-03-24T02:06:55.532Z,12.06
2023-03-24T02:07:55.503Z,12.02
2023-03-24T02:08:55.530Z,12.07
2023-03-24T02:09:55.491Z,12.09
2023-03-24T02:10:55.481Z,12.02
2023-03-24T02:11:55.485Z,12.03
2023-03-24T02:12:55.486Z,12.20
2023-03-24T02:13:55.467Z,12.04
2023-03-24T02:14:55.453Z,12.10
2023-03-24T02:15:55.479Z,12.10
2023-03-24T02:16:55.433Z,12.07
2023-03-24T02:17:56.170Z,12.04
2023-03-24T02:18:55.420Z,12.15
2023-03-24T02:19:55.414Z,12.07
2023-03-24T02:20:55.418Z,12.04
2023-03-24T02:21:55.402Z,12.04
2023-03-24T02:22:55.403Z,12.02
2023-03-24T02:23:55.372Z,12.02
2023-03-24T02:24:55.422Z,12.09
2023-03-24T02:25:55.376Z,12.06
2023-03-24T02:26:55.344Z,11.91
2023-03-24T02:27:56.198Z,12.03
2023-03-24T02:28:55.348Z,12.03
2023-03-24T02:29:55.338Z,11.91
2023-03-24T02:30:55.314Z,12.02
2023-03-24T02:31:55.360Z,11.94
2023-03-24T02:32:55.310Z,11.87
2023-03-24T02:33:55.305Z,11.97
2023-03-24T02:34:55.292Z,11.91
2023-03-24T02:35:55.328Z,11.84
2023-03-24T02:36:55.278Z,11.94
2023-03-24T02:37:55.281Z,11.95
2023-03-24T02:38:55.253Z,11.90
2023-03-24T02:39:56.257Z,11.90
2023-03-24T02:40:55.241Z,11.81
2023-03-24T02:41:55.227Z,11.84
2023-03-24T02:42:55.232Z,11.88
2023-03-24T02:43:55.227Z,11.86
2023-03-24T02:44:55.232Z,11.81
2023-03-24T02:45:55.316Z,11.90
2023-03-24T02:46:55.197Z,11.81
2023-03-24T02:47:55.263Z,11.95
2023-03-24T02:48:55.184Z,11.81
2023-03-24T02:49:55.177Z,11.83
2023-03-24T02:50:55.164Z,11.78
2023-03-24T02:51:55.166Z,11.95
2023-03-24T02:52:55.140Z,11.88
2023-03-24T02:53:55.129Z,11.94
2023-03-24T02:54:55.122Z,11.99
2023-03-24T02:55:55.114Z,12.06
2023-03-24T02:56:55.193Z,11.99
2023-03-24T02:57:55.122Z,11.99
2023-03-24T02:58:55.113Z,12.03
2023-03-24T02:59:55.086Z,12.06
2023-03-24T03:00:55.090Z,11.97
2023-03-24T03:01:55.131Z,12.03
2023-03-24T03:02:55.078Z,11.87
2023-03-24T03:03:55.105Z,11.95
2023-03-24T03:04:55.080Z,11.88
2023-03-24T03:05:55.064Z,12.02
2023-03-24T03:06:55.025Z,11.97
2023-03-24T03:07:55.025Z,11.91
2023-03-24T03:08:55.022Z,11.90
2023-03-24T03:09:55.018Z,11.88
2023-03-24T03:10:55.000Z,11.91
2023-03-24T03:11:55.012Z,11.90
2023-03-24T03:12:54.998Z,11.95
2023-03-24T03:13:54.984Z,11.80
2023-03-24T03:14:54.977Z,11.87
2023-03-24T03:15:55.065Z,11.83
2023-03-24T03:16:54.954Z,11.87
2023-03-24T03:17:55.022Z,11.91
2023-03-24T03:18:54.949Z,11.91
2023-03-24T03:19:54.927Z,11.81
2023-03-24T03:20:54.936Z,11.77
2023-03-24T03:21:54.918Z,11.84
2023-03-24T03:22:54.947Z,11.86
2023-03-24T03:23:54.912Z,11.94
2023-03-24T03:24:54.882Z,11.99
2023-03-24T03:25:54.894Z,11.86
2023-03-24T03:26:54.872Z,11.78
2023-03-24T03:27:54.886Z,11.78
2023-03-24T03:28:54.879Z,11.91
2023-03-24T03:29:54.854Z,11.94
2023-03-24T03:30:54.901Z,11.94
2023-03-24T03:31:54.830Z,11.94
2023-03-24T03:32:54.871Z,11.87
2023-03-24T03:33:54.821Z,11.95
2023-03-24T03:36:01.175Z,11.90
2023-03-24T03:37:01.105Z,11.88
2023-03-24T03:38:02.190Z,11.87
2023-03-24T03:39:02.177Z,11.87
2023-03-24T03:40:02.158Z,11.95
2023-03-24T03:41:02.164Z,11.90
2023-03-24T03:42:02.171Z,11.90
2023-03-24T03:43:02.152Z,11.94
2023-03-24T03:44:02.164Z,11.97
2023-03-24T03:45:02.122Z,11.91
2023-03-24T03:46:02.194Z,11.91
2023-03-24T03:47:02.114Z,11.86
2023-03-24T03:48:02.192Z,11.80
2023-03-24T03:49:02.130Z,11.86
2023-03-24T21:23:03.745Z,9.23
2023-03-24T21:24:03.706Z,9.23
2023-03-24T21:25:03.712Z,9.26
2023-03-24T21:26:03.672Z,9.23
2023-03-24T21:27:03.671Z,9.18
2023-03-24T21:28:03.667Z,9.21
2023-03-24T21:29:03.678Z,9.11
2023-03-24T21:30:03.667Z,9.14
2023-03-24T21:31:03.730Z,9.11
2023-03-24T21:32:03.652Z,9.04
2023-03-24T21:33:03.677Z,9.14
2023-03-24T21:34:03.616Z,9.16
2023-03-24T21:35:03.599Z,9.18
2023-03-24T21:36:03.618Z,9.16
2023-03-24T21:37:03.596Z,9.21
2023-03-24T21:38:03.586Z,9.22
2023-03-24T21:39:03.581Z,9.19
2023-03-24T21:40:03.564Z,9.26
2023-03-24T21:41:03.550Z,9.26
2023-03-24T21:42:03.553Z,9.21
2023-03-24T21:43:03.540Z,9.18
2023-03-24T21:44:03.545Z,9.26
2023-03-24T21:45:03.529Z,9.29
2023-03-24T21:46:03.529Z,9.39
2023-03-24T21:47:03.533Z,9.34
2023-03-24T21:48:03.638Z,9.31
2023-03-24T21:49:04.602Z,9.43
2023-03-24T21:50:04.591Z,9.47
2023-03-24T21:51:04.581Z,9.46
2023-03-24T21:52:04.645Z,9.51
2023-03-24T21:53:04.553Z,9.64
2023-03-24T21:54:04.610Z,9.61
2023-03-24T21:55:04.551Z,9.62
2023-03-24T21:56:04.791Z,9.51
2023-03-24T21:57:04.555Z,9.61
2023-03-24T21:58:04.537Z,9.50
2023-03-24T21:59:04.580Z,9.55
2023-03-24T22:00:04.546Z,9.54
2023-03-24T22:01:04.534Z,9.50
2023-03-24T22:02:04.500Z,9.58
2023-03-24T22:03:05.301Z,9.58
2023-03-24T22:04:04.560Z,9.56
2023-03-24T22:05:04.497Z,9.58
2023-03-24T22:06:04.461Z,9.54
2023-03-24T22:07:04.475Z,9.48
2023-03-24T22:08:04.444Z,9.40
2023-03-24T22:09:04.435Z,9.46
2023-03-24T22:10:04.422Z,9.51
2023-03-24T22:11:04.502Z,9.51
2023-03-24T22:12:04.421Z,9.58
2023-03-24T22:13:04.425Z,9.55
2023-03-24T22:14:04.403Z,9.54
2023-03-24T22:15:04.407Z,9.62
2023-03-24T22:16:04.388Z,9.58
2023-03-24T22:17:04.465Z,9.73
2023-03-24T22:18:04.425Z,9.65
2023-03-24T22:19:04.361Z,9.72
2023-03-24T22:20:04.375Z,9.68
2023-03-24T22:21:04.435Z,9.74
2023-03-24T22:22:04.977Z,9.68
2023-03-24T22:23:04.341Z,9.69
2023-03-24T22:24:04.322Z,9.66
2023-03-24T22:25:04.324Z,9.65
2023-03-24T22:26:04.369Z,9.68
2023-03-24T22:27:04.293Z,9.61
2023-03-24T22:28:04.275Z,9.65
2023-03-24T22:29:04.278Z,9.73
2023-03-24T22:30:04.278Z,9.69
2023-03-24T22:31:04.262Z,9.66
2023-03-24T22:32:04.283Z,9.77
2023-03-24T22:33:04.298Z,9.69
2023-03-24T22:34:04.233Z,9.59
2023-03-24T22:35:04.230Z,9.72
2023-03-24T22:36:04.260Z,9.64
2023-03-24T22:37:04.213Z,9.68
2023-03-24T22:38:04.203Z,9.64
2023-03-24T22:39:04.195Z,9.64
2023-03-24T22:40:04.982Z,9.65
2023-03-24T22:41:04.300Z,9.66
2023-03-24T22:42:06.063Z,9.46
2023-03-24T22:43:04.160Z,9.41
2023-03-24T22:44:04.160Z,9.37
2023-03-24T22:45:04.139Z,9.37
2023-03-24T22:46:04.151Z,9.44
2023-03-24T22:47:04.135Z,9.44
2023-03-24T22:48:04.160Z,9.39
2023-03-24T22:49:04.972Z,9.48
2023-03-24T22:50:04.137Z,9.44
2023-03-24T22:51:04.104Z,9.40
2023-03-24T22:52:04.089Z,9.47
2023-03-24T22:53:04.072Z,9.41
2023-03-24T22:54:04.091Z,9.40
2023-03-24T22:55:04.061Z,9.44
2023-03-24T22:56:04.056Z,9.44
2023-03-24T22:57:04.064Z,9.51
2023-03-24T22:58:04.032Z,9.43
2023-03-24T22:59:04.034Z,9.43
2023-03-24T23:00:04.023Z,9.44
2023-03-24T23:01:04.000Z,9.40
2023-03-24T23:02:09.809Z,9.41
2023-03-24T23:03:06.045Z,9.39
2023-03-24T23:04:04.023Z,9.29
2023-03-24T23:05:04.051Z,9.29
2023-03-24T23:06:03.973Z,9.29
2023-03-24T23:07:03.974Z,9.25
2023-03-24T23:08:03.973Z,9.37
2023-03-24T23:09:03.941Z,9.25
2023-03-24T23:10:04.063Z,9.22
2023-03-24T23:11:03.917Z,9.22
2023-03-24T23:12:03.923Z,9.21
2023-03-24T23:13:03.908Z,9.21
2023-03-24T23:14:03.905Z,9.23
2023-03-24T23:15:03.910Z,9.21
2023-03-24T23:16:03.898Z,9.23
2023-03-24T23:17:03.882Z,9.16
2023-03-24T23:18:03.885Z,9.25
2023-03-24T23:19:03.866Z,9.23
2023-03-24T23:20:03.871Z,9.31
2023-03-24T23:21:03.856Z,9.21
2023-03-24T23:22:03.836Z,9.29
2023-03-24T23:23:05.112Z,9.31
2023-03-24T23:24:03.820Z,9.25
2023-03-24T23:25:03.830Z,9.26
2023-03-24T23:26:03.838Z,9.21
2023-03-24T23:27:03.794Z,9.29
2023-03-24T23:28:04.491Z,9.22
2023-03-24T23:29:03.806Z,9.14
2023-03-24T23:30:03.793Z,9.19
2023-03-24T23:31:03.808Z,9.14
2023-03-24T23:32:03.768Z,9.11
2023-03-24T23:33:03.845Z,9.16
2023-03-24T23:34:03.739Z,9.16
2023-03-24T23:35:03.829Z,9.18
2023-03-24T23:36:03.743Z,9.18
2023-03-24T23:37:03.725Z,9.16
2023-03-24T23:38:03.710Z,9.06
2023-03-24T23:39:03.717Z,9.10
2023-03-24T23:40:03.695Z,9.10
2023-03-24T23:41:03.682Z,9.21
2023-03-24T23:42:03.745Z,9.10
2023-03-24T23:43:03.664Z,9.04
2023-03-24T23:44:03.652Z,9.04
2023-03-24T23:45:03.656Z,8.94
2023-03-24T23:46:03.676Z,8.94
2023-03-24T23:47:03.720Z,8.89
2023-03-24T23:48:03.671Z,8.88
2023-03-24T23:49:04.624Z,8.78
2023-03-24T23:50:03.622Z,8.82
2023-03-24T23:51:03.619Z,8.70
2023-03-24T23:52:03.598Z,8.76
2023-03-24T23:53:03.599Z,8.78
2023-03-24T23:54:03.578Z,8.66
2023-03-24T23:55:03.577Z,8.76
2023-03-24T23:56:03.574Z,8.69
2023-03-24T23:57:03.566Z,8.70
2023-03-24T23:58:03.556Z,8.71
2023-03-24T23:59:03.542Z,8.74
